sensor_id;sensor_type;location;lat;lon;timestamp;P1;durP1;ratioP1;P2;durP2;ratioP2
66741;SDS011;53654;54.152;19.432;2022-07-10T00:00:30;3.40;;;2.20;;
66741;SDS011;53654;54.152;19.432;2022-07-10T00:03:04;2.70;;;2.00;;
66741;SDS011;53654;54.152;19.432;2022-07-10T00:05:34;3.50;;;2.00;;
66741;SDS011;53654;54.152;19.432;2022-07-10T00:08:03;4.50;;;2.00;;
66741;SDS011;53654;54.152;19.432;2022-07-10T00:10:31;5.80;;;2.00;;
66741;SDS011;53654;54.152;19.432;2022-07-10T00:13:01;6.70;;;2.00;;
66741;SDS011;53654;54.152;19.432;2022-07-10T00:15:29;4.60;;;2.00;;
66741;SDS011;53654;54.152;19.432;2022-07-10T00:17:59;3.70;;;1.90;;
66741;SDS011;53654;54.152;19.432;2022-07-10T00:20:27;3.10;;;1.80;;
66741;SDS011;53654;54.152;19.432;2022-07-10T00:22:56;4.50;;;2.10;;
66741;SDS011;53654;54.152;19.432;2022-07-10T00:25:28;4.50;;;2.10;;
66741;SDS011;53654;54.152;19.432;2022-07-10T00:27:58;3.80;;;2.00;;
66741;SDS011;53654;54.152;19.432;2022-07-10T00:30:26;4.90;;;2.30;;
66741;SDS011;53654;54.152;19.432;2022-07-10T00:32:54;3.80;;;2.00;;
66741;SDS011;53654;54.152;19.432;2022-07-10T00:35:23;3.70;;;2.20;;
66741;SDS011;53654;54.152;19.432;2022-07-10T00:37:51;5.10;;;2.70;;
66741;SDS011;53654;54.152;19.432;2022-07-10T00:40:19;6.70;;;2.50;;
66741;SDS011;53654;54.152;19.432;2022-07-10T00:42:47;5.10;;;1.90;;
66741;SDS011;53654;54.152;19.432;2022-07-10T00:45:16;3.10;;;2.10;;
66741;SDS011;53654;54.152;19.432;2022-07-10T00:47:44;4.80;;;2.00;;
66741;SDS011;53654;54.152;19.432;2022-07-10T00:50:12;3.40;;;1.60;;
66741;SDS011;53654;54.152;19.432;2022-07-10T00:52:40;3.30;;;1.90;;
66741;SDS011;53654;54.152;19.432;2022-07-10T00:55:08;3.70;;;1.70;;
66741;SDS011;53654;54.152;19.432;2022-07-10T00:57:37;2.70;;;1.80;;
66741;SDS011;53654;54.152;19.432;2022-07-10T01:00:07;4.30;;;1.70;;
66741;SDS011;53654;54.152;19.432;2022-07-10T01:02:42;2.40;;;1.80;;
66741;SDS011;53654;54.152;19.432;2022-07-10T01:05:11;5.50;;;2.00;;
66741;SDS011;53654;54.152;19.432;2022-07-10T01:07:39;2.90;;;1.80;;
66741;SDS011;53654;54.152;19.432;2022-07-10T01:10:07;3.40;;;2.00;;
66741;SDS011;53654;54.152;19.432;2022-07-10T01:12:36;3.70;;;1.70;;
66741;SDS011;53654;54.152;19.432;2022-07-10T01:15:05;3.00;;;2.00;;
66741;SDS011;53654;54.152;19.432;2022-07-10T01:17:34;6.20;;;1.90;;
66741;SDS011;53654;54.152;19.432;2022-07-10T01:20:07;5.40;;;2.00;;
66741;SDS011;53654;54.152;19.432;2022-07-10T01:22:36;6.40;;;2.20;;
66741;SDS011;53654;54.152;19.432;2022-07-10T01:25:05;4.60;;;2.00;;
66741;SDS011;53654;54.152;19.432;2022-07-10T01:27:34;5.30;;;2.30;;
66741;SDS011;53654;54.152;19.432;2022-07-10T01:30:02;3.70;;;2.30;;
66741;SDS011;53654;54.152;19.432;2022-07-10T01:32:40;2.70;;;2.00;;
66741;SDS011;53654;54.152;19.432;2022-07-10T01:35:08;7.90;;;2.60;;
66741;SDS011;53654;54.152;19.432;2022-07-10T01:37:37;3.80;;;2.00;;
66741;SDS011;53654;54.152;19.432;2022-07-10T01:40:06;5.10;;;2.20;;
66741;SDS011;53654;54.152;19.432;2022-07-10T01:42:36;4.50;;;2.00;;
66741;SDS011;53654;54.152;19.432;2022-07-10T01:45:06;7.30;;;2.40;;
66741;SDS011;53654;54.152;19.432;2022-07-10T01:47:37;3.70;;;2.40;;
66741;SDS011;53654;54.152;19.432;2022-07-10T01:50:06;6.40;;;2.30;;
66741;SDS011;53654;54.152;19.432;2022-07-10T01:52:34;5.40;;;2.50;;
66741;SDS011;53654;54.152;19.432;2022-07-10T01:55:03;3.60;;;2.10;;
66741;SDS011;53654;54.152;19.432;2022-07-10T01:57:33;4.50;;;2.20;;
66741;SDS011;53654;54.152;19.432;2022-07-10T02:00:01;4.30;;;2.20;;
66741;SDS011;53654;54.152;19.432;2022-07-10T02:02:38;6.20;;;2.30;;
66741;SDS011;53654;54.152;19.432;2022-07-10T02:05:06;3.70;;;1.70;;
66741;SDS011;53654;54.152;19.432;2022-07-10T02:07:35;5.80;;;2.40;;
66741;SDS011;53654;54.152;19.432;2022-07-10T02:10:03;3.10;;;2.10;;
66741;SDS011;53654;54.152;19.432;2022-07-10T02:12:32;2.60;;;1.90;;
66741;SDS011;53654;54.152;19.432;2022-07-10T02:15:00;6.00;;;2.40;;
66741;SDS011;53654;54.152;19.432;2022-07-10T02:17:29;3.20;;;2.00;;
66741;SDS011;53654;54.152;19.432;2022-07-10T02:19:57;4.40;;;2.10;;
66741;SDS011;53654;54.152;19.432;2022-07-10T02:22:25;4.40;;;2.10;;
66741;SDS011;53654;54.152;19.432;2022-07-10T02:24:53;5.40;;;2.30;;
66741;SDS011;53654;54.152;19.432;2022-07-10T02:27:21;6.50;;;2.00;;
66741;SDS011;53654;54.152;19.432;2022-07-10T02:29:50;3.60;;;2.30;;
66741;SDS011;53654;54.152;19.432;2022-07-10T02:32:18;2.40;;;2.20;;
66741;SDS011;53654;54.152;19.432;2022-07-10T02:34:46;3.40;;;2.40;;
66741;SDS011;53654;54.152;19.432;2022-07-10T02:37:14;6.50;;;2.80;;
66741;SDS011;53654;54.152;19.432;2022-07-10T02:39:42;3.80;;;2.70;;
66741;SDS011;53654;54.152;19.432;2022-07-10T02:42:10;3.70;;;2.10;;
66741;SDS011;53654;54.152;19.432;2022-07-10T02:44:38;5.50;;;2.30;;
66741;SDS011;53654;54.152;19.432;2022-07-10T02:47:07;6.20;;;2.70;;
66741;SDS011;53654;54.152;19.432;2022-07-10T02:49:35;5.90;;;2.40;;
66741;SDS011;53654;54.152;19.432;2022-07-10T02:52:03;5.40;;;2.30;;
66741;SDS011;53654;54.152;19.432;2022-07-10T02:54:32;3.50;;;2.10;;
66741;SDS011;53654;54.152;19.432;2022-07-10T02:57:00;3.70;;;2.30;;
66741;SDS011;53654;54.152;19.432;2022-07-10T02:59:29;3.20;;;2.60;;
66741;SDS011;53654;54.152;19.432;2022-07-10T03:01:57;2.20;;;2.10;;
66741;SDS011;53654;54.152;19.432;2022-07-10T03:04:25;5.20;;;2.30;;
66741;SDS011;53654;54.152;19.432;2022-07-10T03:06:53;5.90;;;2.50;;
66741;SDS011;53654;54.152;19.432;2022-07-10T03:09:22;4.30;;;2.40;;
66741;SDS011;53654;54.152;19.432;2022-07-10T03:11:50;4.20;;;2.30;;
66741;SDS011;53654;54.152;19.432;2022-07-10T03:14:19;4.50;;;2.80;;
66741;SDS011;53654;54.152;19.432;2022-07-10T03:16:47;8.20;;;3.40;;
66741;SDS011;53654;54.152;19.432;2022-07-10T03:19:15;7.20;;;3.80;;
66741;SDS011;53654;54.152;19.432;2022-07-10T03:21:43;7.20;;;4.10;;
66741;SDS011;53654;54.152;19.432;2022-07-10T03:24:12;4.80;;;3.90;;
66741;SDS011;53654;54.152;19.432;2022-07-10T03:26:40;5.10;;;3.50;;
66741;SDS011;53654;54.152;19.432;2022-07-10T03:29:08;5.20;;;3.40;;
66741;SDS011;53654;54.152;19.432;2022-07-10T03:31:36;5.00;;;3.40;;
66741;SDS011;53654;54.152;19.432;2022-07-10T03:34:04;7.10;;;3.10;;
66741;SDS011;53654;54.152;19.432;2022-07-10T03:36:33;7.90;;;3.30;;
66741;SDS011;53654;54.152;19.432;2022-07-10T03:39:01;5.90;;;3.30;;
66741;SDS011;53654;54.152;19.432;2022-07-10T03:41:29;5.40;;;2.70;;
66741;SDS011;53654;54.152;19.432;2022-07-10T03:43:57;3.70;;;2.70;;
66741;SDS011;53654;54.152;19.432;2022-07-10T03:46:25;5.70;;;3.00;;
66741;SDS011;53654;54.152;19.432;2022-07-10T03:48:53;5.70;;;2.50;;
66741;SDS011;53654;54.152;19.432;2022-07-10T03:51:21;5.60;;;2.60;;
66741;SDS011;53654;54.152;19.432;2022-07-10T03:53:49;3.60;;;2.00;;
66741;SDS011;53654;54.152;19.432;2022-07-10T03:56:17;6.40;;;2.30;;
66741;SDS011;53654;54.152;19.432;2022-07-10T03:59:05;5.90;;;2.30;;
66741;SDS011;53654;54.152;19.432;2022-07-10T04:01:33;4.80;;;2.50;;
66741;SDS011;53654;54.152;19.432;2022-07-10T04:04:01;3.40;;;2.10;;
66741;SDS011;53654;54.152;19.432;2022-07-10T04:06:29;3.90;;;2.00;;
66741;SDS011;53654;54.152;19.432;2022-07-10T04:08:58;6.10;;;2.00;;
66741;SDS011;53654;54.152;19.432;2022-07-10T04:11:26;5.40;;;2.20;;
66741;SDS011;53654;54.152;19.432;2022-07-10T04:13:54;4.00;;;1.70;;
66741;SDS011;53654;54.152;19.432;2022-07-10T04:16:22;3.80;;;1.40;;
66741;SDS011;53654;54.152;19.432;2022-07-10T04:18:50;4.00;;;1.50;;
66741;SDS011;53654;54.152;19.432;2022-07-10T04:21:18;3.70;;;1.40;;
66741;SDS011;53654;54.152;19.432;2022-07-10T04:23:46;4.60;;;1.80;;
66741;SDS011;53654;54.152;19.432;2022-07-10T04:26:14;3.90;;;1.50;;
66741;SDS011;53654;54.152;19.432;2022-07-10T04:28:43;5.00;;;1.50;;
66741;SDS011;53654;54.152;19.432;2022-07-10T04:31:11;4.30;;;1.60;;
66741;SDS011;53654;54.152;19.432;2022-07-10T04:33:39;4.30;;;1.60;;
66741;SDS011;53654;54.152;19.432;2022-07-10T04:36:07;3.70;;;1.30;;
66741;SDS011;53654;54.152;19.432;2022-07-10T04:38:35;3.70;;;1.80;;
66741;SDS011;53654;54.152;19.432;2022-07-10T04:41:04;5.60;;;1.70;;
66741;SDS011;53654;54.152;19.432;2022-07-10T04:43:32;2.60;;;1.40;;
66741;SDS011;53654;54.152;19.432;2022-07-10T04:46:01;4.00;;;1.40;;
66741;SDS011;53654;54.152;19.432;2022-07-10T04:48:29;3.70;;;1.50;;
66741;SDS011;53654;54.152;19.432;2022-07-10T04:50:57;3.40;;;1.50;;
66741;SDS011;53654;54.152;19.432;2022-07-10T04:53:26;5.60;;;1.80;;
66741;SDS011;53654;54.152;19.432;2022-07-10T04:55:54;4.40;;;1.90;;
66741;SDS011;53654;54.152;19.432;2022-07-10T04:58:22;4.20;;;1.30;;
66741;SDS011;53654;54.152;19.432;2022-07-10T05:00:50;11.30;;;1.90;;
66741;SDS011;53654;54.152;19.432;2022-07-10T05:03:18;4.00;;;1.40;;
66741;SDS011;53654;54.152;19.432;2022-07-10T05:05:46;4.50;;;1.60;;
66741;SDS011;53654;54.152;19.432;2022-07-10T05:08:14;6.00;;;1.70;;
66741;SDS011;53654;54.152;19.432;2022-07-10T05:10:42;3.90;;;1.30;;
66741;SDS011;53654;54.152;19.432;2022-07-10T05:13:10;4.80;;;1.50;;
66741;SDS011;53654;54.152;19.432;2022-07-10T05:15:39;3.60;;;1.40;;
66741;SDS011;53654;54.152;19.432;2022-07-10T05:18:07;5.50;;;1.90;;
66741;SDS011;53654;54.152;19.432;2022-07-10T05:20:36;3.50;;;1.60;;
66741;SDS011;53654;54.152;19.432;2022-07-10T05:23:09;6.60;;;2.30;;
66741;SDS011;53654;54.152;19.432;2022-07-10T05:25:39;3.70;;;1.70;;
66741;SDS011;53654;54.152;19.432;2022-07-10T05:28:07;4.80;;;1.50;;
66741;SDS011;53654;54.152;19.432;2022-07-10T05:30:36;4.00;;;1.90;;
66741;SDS011;53654;54.152;19.432;2022-07-10T05:33:04;4.00;;;1.80;;
66741;SDS011;53654;54.152;19.432;2022-07-10T05:35:32;3.70;;;1.70;;
66741;SDS011;53654;54.152;19.432;2022-07-10T05:38:00;4.30;;;2.00;;
66741;SDS011;53654;54.152;19.432;2022-07-10T05:40:28;4.60;;;2.00;;
66741;SDS011;53654;54.152;19.432;2022-07-10T05:42:56;5.50;;;2.50;;
66741;SDS011;53654;54.152;19.432;2022-07-10T05:45:25;4.80;;;2.30;;
66741;SDS011;53654;54.152;19.432;2022-07-10T05:47:53;6.90;;;2.80;;
66741;SDS011;53654;54.152;19.432;2022-07-10T05:50:21;3.00;;;1.70;;
66741;SDS011;53654;54.152;19.432;2022-07-10T05:52:49;7.10;;;2.20;;
66741;SDS011;53654;54.152;19.432;2022-07-10T05:55:17;5.20;;;1.90;;
66741;SDS011;53654;54.152;19.432;2022-07-10T05:57:46;4.40;;;1.60;;
66741;SDS011;53654;54.152;19.432;2022-07-10T06:00:14;6.10;;;1.70;;
66741;SDS011;53654;54.152;19.432;2022-07-10T06:02:42;5.90;;;1.90;;
66741;SDS011;53654;54.152;19.432;2022-07-10T06:05:11;8.00;;;2.10;;
66741;SDS011;53654;54.152;19.432;2022-07-10T06:07:39;5.50;;;1.90;;
66741;SDS011;53654;54.152;19.432;2022-07-10T06:10:07;4.30;;;1.80;;
66741;SDS011;53654;54.152;19.432;2022-07-10T06:12:35;4.50;;;1.70;;
66741;SDS011;53654;54.152;19.432;2022-07-10T06:15:05;5.20;;;2.00;;
66741;SDS011;53654;54.152;19.432;2022-07-10T06:17:33;4.40;;;1.80;;
66741;SDS011;53654;54.152;19.432;2022-07-10T06:20:02;4.50;;;1.90;;
66741;SDS011;53654;54.152;19.432;2022-07-10T06:22:30;3.70;;;1.70;;
66741;SDS011;53654;54.152;19.432;2022-07-10T06:24:59;6.00;;;2.10;;
66741;SDS011;53654;54.152;19.432;2022-07-10T06:27:34;4.60;;;1.80;;
66741;SDS011;53654;54.152;19.432;2022-07-10T06:30:03;3.70;;;1.80;;
66741;SDS011;53654;54.152;19.432;2022-07-10T06:32:31;5.60;;;1.80;;
66741;SDS011;53654;54.152;19.432;2022-07-10T06:34:59;4.00;;;1.80;;
66741;SDS011;53654;54.152;19.432;2022-07-10T06:37:28;2.50;;;1.50;;
66741;SDS011;53654;54.152;19.432;2022-07-10T06:39:56;4.00;;;2.00;;
66741;SDS011;53654;54.152;19.432;2022-07-10T06:42:24;5.60;;;2.50;;
66741;SDS011;53654;54.152;19.432;2022-07-10T06:44:58;7.10;;;2.00;;
66741;SDS011;53654;54.152;19.432;2022-07-10T06:47:26;3.60;;;1.60;;
66741;SDS011;53654;54.152;19.432;2022-07-10T06:50:13;3.70;;;1.60;;
66741;SDS011;53654;54.152;19.432;2022-07-10T06:52:41;3.40;;;1.40;;
66741;SDS011;53654;54.152;19.432;2022-07-10T06:55:10;3.70;;;1.50;;
66741;SDS011;53654;54.152;19.432;2022-07-10T06:57:38;4.90;;;1.80;;
66741;SDS011;53654;54.152;19.432;2022-07-10T07:00:07;3.60;;;1.70;;
66741;SDS011;53654;54.152;19.432;2022-07-10T07:02:37;5.60;;;1.50;;
66741;SDS011;53654;54.152;19.432;2022-07-10T07:05:06;4.20;;;1.60;;
66741;SDS011;53654;54.152;19.432;2022-07-10T07:07:35;3.90;;;1.60;;
66741;SDS011;53654;54.152;19.432;2022-07-10T07:10:04;3.00;;;1.50;;
66741;SDS011;53654;54.152;19.432;2022-07-10T07:12:34;4.90;;;1.40;;
66741;SDS011;53654;54.152;19.432;2022-07-10T07:15:02;2.90;;;1.60;;
66741;SDS011;53654;54.152;19.432;2022-07-10T07:17:31;3.30;;;1.50;;
66741;SDS011;53654;54.152;19.432;2022-07-10T07:20:13;4.30;;;1.20;;
66741;SDS011;53654;54.152;19.432;2022-07-10T07:23:00;3.70;;;1.40;;
66741;SDS011;53654;54.152;19.432;2022-07-10T07:25:38;1.80;;;1.30;;
66741;SDS011;53654;54.152;19.432;2022-07-10T07:28:09;1.00;;;0.90;;
66741;SDS011;53654;54.152;19.432;2022-07-10T07:30:38;3.30;;;1.10;;
66741;SDS011;53654;54.152;19.432;2022-07-10T07:33:06;3.60;;;1.40;;
66741;SDS011;53654;54.152;19.432;2022-07-10T07:35:34;4.00;;;1.70;;
66741;SDS011;53654;54.152;19.432;2022-07-10T07:38:03;2.70;;;1.20;;
66741;SDS011;53654;54.152;19.432;2022-07-10T07:40:33;1.80;;;1.00;;
66741;SDS011;53654;54.152;19.432;2022-07-10T07:43:01;3.60;;;1.20;;
66741;SDS011;53654;54.152;19.432;2022-07-10T07:45:29;3.90;;;1.00;;
66741;SDS011;53654;54.152;19.432;2022-07-10T07:47:58;3.10;;;1.30;;
66741;SDS011;53654;54.152;19.432;2022-07-10T07:50:33;3.50;;;1.30;;
66741;SDS011;53654;54.152;19.432;2022-07-10T07:53:03;2.30;;;1.00;;
66741;SDS011;53654;54.152;19.432;2022-07-10T07:55:33;1.90;;;1.30;;
66741;SDS011;53654;54.152;19.432;2022-07-10T07:58:02;2.90;;;1.00;;
66741;SDS011;53654;54.152;19.432;2022-07-10T08:00:31;2.20;;;0.80;;
66741;SDS011;53654;54.152;19.432;2022-07-10T08:02:59;3.20;;;1.00;;
66741;SDS011;53654;54.152;19.432;2022-07-10T08:05:29;3.00;;;1.10;;
66741;SDS011;53654;54.152;19.432;2022-07-10T08:07:58;2.00;;;1.10;;
66741;SDS011;53654;54.152;19.432;2022-07-10T08:10:32;2.10;;;1.20;;
66741;SDS011;53654;54.152;19.432;2022-07-10T08:13:00;3.00;;;1.20;;
66741;SDS011;53654;54.152;19.432;2022-07-10T08:15:28;3.60;;;1.40;;
66741;SDS011;53654;54.152;19.432;2022-07-10T08:17:57;3.50;;;1.40;;
66741;SDS011;53654;54.152;19.432;2022-07-10T08:20:27;3.10;;;1.00;;
66741;SDS011;53654;54.152;19.432;2022-07-10T08:22:55;2.50;;;1.00;;
66741;SDS011;53654;54.152;19.432;2022-07-10T08:25:27;2.70;;;1.30;;
66741;SDS011;53654;54.152;19.432;2022-07-10T08:28:01;2.40;;;1.20;;
66741;SDS011;53654;54.152;19.432;2022-07-10T08:30:37;2.40;;;1.10;;
66741;SDS011;53654;54.152;19.432;2022-07-10T08:33:06;2.20;;;1.20;;
66741;SDS011;53654;54.152;19.432;2022-07-10T08:35:34;2.10;;;1.20;;
66741;SDS011;53654;54.152;19.432;2022-07-10T08:38:02;2.20;;;1.20;;
66741;SDS011;53654;54.152;19.432;2022-07-10T08:40:35;2.90;;;1.10;;
66741;SDS011;53654;54.152;19.432;2022-07-10T08:43:05;2.40;;;1.10;;
66741;SDS011;53654;54.152;19.432;2022-07-10T08:45:33;4.10;;;1.30;;
66741;SDS011;53654;54.152;19.432;2022-07-10T08:48:02;2.00;;;1.10;;
66741;SDS011;53654;54.152;19.432;2022-07-10T08:50:33;2.20;;;1.10;;
66741;SDS011;53654;54.152;19.432;2022-07-10T08:53:16;2.50;;;1.00;;
66741;SDS011;53654;54.152;19.432;2022-07-10T08:55:51;2.90;;;1.20;;
66741;SDS011;53654;54.152;19.432;2022-07-10T08:58:19;1.00;;;0.80;;
66741;SDS011;53654;54.152;19.432;2022-07-10T09:00:49;2.40;;;1.10;;
66741;SDS011;53654;54.152;19.432;2022-07-10T09:03:17;2.10;;;1.00;;
66741;SDS011;53654;54.152;19.432;2022-07-10T09:05:46;1.70;;;1.10;;
66741;SDS011;53654;54.152;19.432;2022-07-10T09:08:21;3.20;;;1.30;;
66741;SDS011;53654;54.152;19.432;2022-07-10T09:10:50;3.50;;;1.40;;
66741;SDS011;53654;54.152;19.432;2022-07-10T09:13:19;2.50;;;1.10;;
66741;SDS011;53654;54.152;19.432;2022-07-10T09:15:48;1.80;;;1.10;;
66741;SDS011;53654;54.152;19.432;2022-07-10T09:18:18;2.00;;;1.00;;
66741;SDS011;53654;54.152;19.432;2022-07-10T09:20:47;2.10;;;0.70;;
66741;SDS011;53654;54.152;19.432;2022-07-10T09:23:18;1.60;;;0.80;;
66741;SDS011;53654;54.152;19.432;2022-07-10T09:25:51;1.80;;;0.60;;
66741;SDS011;53654;54.152;19.432;2022-07-10T09:28:20;1.60;;;0.70;;
66741;SDS011;53654;54.152;19.432;2022-07-10T09:30:49;1.40;;;0.60;;
66741;SDS011;53654;54.152;19.432;2022-07-10T09:33:19;1.70;;;0.90;;
66741;SDS011;53654;54.152;19.432;2022-07-10T09:41:15;2.50;;;0.70;;
66741;SDS011;53654;54.152;19.432;2022-07-10T09:43:59;1.10;;;0.70;;
66741;SDS011;53654;54.152;19.432;2022-07-10T09:46:34;2.20;;;1.00;;
66741;SDS011;53654;54.152;19.432;2022-07-10T09:49:05;0.80;;;0.60;;
66741;SDS011;53654;54.152;19.432;2022-07-10T09:51:34;3.10;;;1.10;;
66741;SDS011;53654;54.152;19.432;2022-07-10T09:54:05;1.90;;;1.20;;
66741;SDS011;53654;54.152;19.432;2022-07-10T09:56:39;1.50;;;0.80;;
66741;SDS011;53654;54.152;19.432;2022-07-10T09:59:10;2.00;;;1.10;;
66741;SDS011;53654;54.152;19.432;2022-07-10T10:01:50;2.40;;;1.00;;
66741;SDS011;53654;54.152;19.432;2022-07-10T10:04:20;1.40;;;1.10;;
66741;SDS011;53654;54.152;19.432;2022-07-10T10:07:01;2.60;;;1.10;;
66741;SDS011;53654;54.152;19.432;2022-07-10T10:09:41;0.80;;;0.80;;
66741;SDS011;53654;54.152;19.432;2022-07-10T10:12:17;2.00;;;1.10;;
66741;SDS011;53654;54.152;19.432;2022-07-10T10:14:55;1.50;;;0.80;;
66741;SDS011;53654;54.152;19.432;2022-07-10T10:17:25;1.20;;;1.00;;
66741;SDS011;53654;54.152;19.432;2022-07-10T10:19:56;3.20;;;1.30;;
66741;SDS011;53654;54.152;19.432;2022-07-10T10:22:44;3.70;;;1.10;;
66741;SDS011;53654;54.152;19.432;2022-07-10T10:25:13;1.40;;;1.20;;
66741;SDS011;53654;54.152;19.432;2022-07-10T10:27:44;2.70;;;1.40;;
66741;SDS011;53654;54.152;19.432;2022-07-10T10:30:12;1.80;;;1.10;;
66741;SDS011;53654;54.152;19.432;2022-07-10T10:32:41;3.60;;;2.00;;
66741;SDS011;53654;54.152;19.432;2022-07-10T10:35:09;1.90;;;1.40;;
66741;SDS011;53654;54.152;19.432;2022-07-10T10:37:39;1.30;;;1.20;;
66741;SDS011;53654;54.152;19.432;2022-07-10T10:40:29;4.20;;;1.90;;
66741;SDS011;53654;54.152;19.432;2022-07-10T10:43:14;2.30;;;1.40;;
66741;SDS011;53654;54.152;19.432;2022-07-10T10:45:51;3.30;;;1.50;;
66741;SDS011;53654;54.152;19.432;2022-07-10T10:48:20;2.60;;;1.30;;
66741;SDS011;53654;54.152;19.432;2022-07-10T10:51:05;2.20;;;1.40;;
66741;SDS011;53654;54.152;19.432;2022-07-10T10:53:33;3.30;;;1.30;;
66741;SDS011;53654;54.152;19.432;2022-07-10T10:58:37;3.00;;;1.10;;
66741;SDS011;53654;54.152;19.432;2022-07-10T11:06:42;2.80;;;1.50;;
66741;SDS011;53654;54.152;19.432;2022-07-10T11:12:08;2.10;;;1.50;;
66741;SDS011;53654;54.152;19.432;2022-07-10T11:14:45;2.10;;;1.50;;
66741;SDS011;53654;54.152;19.432;2022-07-10T11:17:15;2.00;;;1.50;;
66741;SDS011;53654;54.152;19.432;2022-07-10T11:19:43;3.40;;;1.50;;
66741;SDS011;53654;54.152;19.432;2022-07-10T11:28:09;3.10;;;1.50;;
66741;SDS011;53654;54.152;19.432;2022-07-10T11:33:15;1.90;;;0.80;;
66741;SDS011;53654;54.152;19.432;2022-07-10T11:35:45;0.90;;;0.80;;
66741;SDS011;53654;54.152;19.432;2022-07-10T11:38:21;1.50;;;0.70;;
66741;SDS011;53654;54.152;19.432;2022-07-10T11:40:50;1.10;;;0.80;;
66741;SDS011;53654;54.152;19.432;2022-07-10T11:43:21;1.20;;;0.90;;
66741;SDS011;53654;54.152;19.432;2022-07-10T11:45:52;0.70;;;0.70;;
66741;SDS011;53654;54.152;19.432;2022-07-10T11:48:27;1.40;;;1.00;;
66741;SDS011;53654;54.152;19.432;2022-07-10T11:50:55;0.80;;;0.70;;
66741;SDS011;53654;54.152;19.432;2022-07-10T11:53:24;2.00;;;1.20;;
66741;SDS011;53654;54.152;19.432;2022-07-10T11:55:55;2.10;;;0.90;;
66741;SDS011;53654;54.152;19.432;2022-07-10T11:58:23;0.80;;;0.80;;
66741;SDS011;53654;54.152;19.432;2022-07-10T12:01:03;1.40;;;1.10;;
66741;SDS011;53654;54.152;19.432;2022-07-10T12:03:36;1.70;;;0.80;;
66741;SDS011;53654;54.152;19.432;2022-07-10T12:06:05;1.40;;;1.20;;
66741;SDS011;53654;54.152;19.432;2022-07-10T12:08:46;0.70;;;0.70;;
66741;SDS011;53654;54.152;19.432;2022-07-10T12:11:16;2.10;;;1.00;;
66741;SDS011;53654;54.152;19.432;2022-07-10T12:13:49;2.00;;;1.20;;
66741;SDS011;53654;54.152;19.432;2022-07-10T12:16:19;1.00;;;1.00;;
66741;SDS011;53654;54.152;19.432;2022-07-10T12:18:49;1.30;;;1.10;;
66741;SDS011;53654;54.152;19.432;2022-07-10T12:21:17;3.90;;;1.60;;
66741;SDS011;53654;54.152;19.432;2022-07-10T12:23:46;1.50;;;1.30;;
66741;SDS011;53654;54.152;19.432;2022-07-10T12:26:16;1.40;;;1.00;;
66741;SDS011;53654;54.152;19.432;2022-07-10T12:28:48;0.80;;;0.80;;
66741;SDS011;53654;54.152;19.432;2022-07-10T12:31:24;2.90;;;0.80;;
66741;SDS011;53654;54.152;19.432;2022-07-10T12:33:56;2.00;;;0.50;;
66741;SDS011;53654;54.152;19.432;2022-07-10T12:36:48;1.20;;;0.70;;
66741;SDS011;53654;54.152;19.432;2022-07-10T12:39:19;3.50;;;0.80;;
66741;SDS011;53654;54.152;19.432;2022-07-10T12:44:34;1.10;;;1.10;;
66741;SDS011;53654;54.152;19.432;2022-07-10T12:47:10;1.70;;;0.80;;
66741;SDS011;53654;54.152;19.432;2022-07-10T12:50:15;2.00;;;0.60;;
66741;SDS011;53654;54.152;19.432;2022-07-10T12:52:36;1.00;;;0.80;;
66741;SDS011;53654;54.152;19.432;2022-07-10T12:55:19;1.00;;;0.90;;
66741;SDS011;53654;54.152;19.432;2022-07-10T12:57:57;0.60;;;0.60;;
66741;SDS011;53654;54.152;19.432;2022-07-10T13:00:30;1.30;;;0.90;;
66741;SDS011;53654;54.152;19.432;2022-07-10T13:03:08;2.50;;;0.80;;
66741;SDS011;53654;54.152;19.432;2022-07-10T13:05:39;1.10;;;0.70;;
66741;SDS011;53654;54.152;19.432;2022-07-10T13:10:39;2.00;;;0.60;;
66741;SDS011;53654;54.152;19.432;2022-07-10T13:13:09;0.80;;;0.80;;
66741;SDS011;53654;54.152;19.432;2022-07-10T13:15:37;1.50;;;0.80;;
66741;SDS011;53654;54.152;19.432;2022-07-10T13:18:17;1.50;;;1.00;;
66741;SDS011;53654;54.152;19.432;2022-07-10T13:20:47;1.80;;;0.80;;
66741;SDS011;53654;54.152;19.432;2022-07-10T13:23:18;1.30;;;1.20;;
66741;SDS011;53654;54.152;19.432;2022-07-10T13:25:51;2.80;;;0.70;;
66741;SDS011;53654;54.152;19.432;2022-07-10T13:28:19;0.70;;;0.70;;
66741;SDS011;53654;54.152;19.432;2022-07-10T13:30:48;1.80;;;1.00;;
66741;SDS011;53654;54.152;19.432;2022-07-10T13:33:16;0.80;;;0.80;;
66741;SDS011;53654;54.152;19.432;2022-07-10T13:35:45;1.50;;;0.60;;
66741;SDS011;53654;54.152;19.432;2022-07-10T13:38:13;2.60;;;1.00;;
66741;SDS011;53654;54.152;19.432;2022-07-10T13:40:44;0.80;;;0.80;;
66741;SDS011;53654;54.152;19.432;2022-07-10T13:43:13;2.00;;;0.80;;
66741;SDS011;53654;54.152;19.432;2022-07-10T13:45:44;1.80;;;0.90;;
66741;SDS011;53654;54.152;19.432;2022-07-10T13:48:12;0.90;;;0.80;;
66741;SDS011;53654;54.152;19.432;2022-07-10T13:50:42;1.90;;;1.00;;
66741;SDS011;53654;54.152;19.432;2022-07-10T13:53:16;1.90;;;0.90;;
66741;SDS011;53654;54.152;19.432;2022-07-10T13:55:44;1.60;;;1.00;;
66741;SDS011;53654;54.152;19.432;2022-07-10T13:58:13;2.50;;;0.90;;
66741;SDS011;53654;54.152;19.432;2022-07-10T14:00:42;1.30;;;0.90;;
66741;SDS011;53654;54.152;19.432;2022-07-10T14:03:10;1.00;;;0.80;;
66741;SDS011;53654;54.152;19.432;2022-07-10T14:05:39;1.40;;;1.10;;
66741;SDS011;53654;54.152;19.432;2022-07-10T14:08:07;1.60;;;1.00;;
66741;SDS011;53654;54.152;19.432;2022-07-10T14:10:35;2.90;;;1.20;;
66741;SDS011;53654;54.152;19.432;2022-07-10T14:13:04;1.90;;;1.00;;
66741;SDS011;53654;54.152;19.432;2022-07-10T14:15:38;1.10;;;0.70;;
66741;SDS011;53654;54.152;19.432;2022-07-10T14:18:08;1.40;;;0.90;;
66741;SDS011;53654;54.152;19.432;2022-07-10T14:20:37;2.80;;;1.20;;
66741;SDS011;53654;54.152;19.432;2022-07-10T14:23:23;2.40;;;1.10;;
66741;SDS011;53654;54.152;19.432;2022-07-10T14:25:52;4.00;;;1.20;;
66741;SDS011;53654;54.152;19.432;2022-07-10T14:28:22;1.70;;;1.00;;
66741;SDS011;53654;54.152;19.432;2022-07-10T14:30:50;1.20;;;0.80;;
66741;SDS011;53654;54.152;19.432;2022-07-10T14:33:21;2.10;;;0.90;;
66741;SDS011;53654;54.152;19.432;2022-07-10T14:35:49;1.00;;;0.90;;
66741;SDS011;53654;54.152;19.432;2022-07-10T14:38:17;1.40;;;1.20;;
66741;SDS011;53654;54.152;19.432;2022-07-10T14:40:46;1.50;;;1.10;;
66741;SDS011;53654;54.152;19.432;2022-07-10T14:43:14;3.50;;;1.30;;
66741;SDS011;53654;54.152;19.432;2022-07-10T14:45:42;2.00;;;1.40;;
66741;SDS011;53654;54.152;19.432;2022-07-10T14:48:18;4.40;;;1.50;;
66741;SDS011;53654;54.152;19.432;2022-07-10T14:50:46;1.50;;;1.10;;
66741;SDS011;53654;54.152;19.432;2022-07-10T14:53:14;3.60;;;1.00;;
66741;SDS011;53654;54.152;19.432;2022-07-10T14:55:43;2.00;;;1.10;;
66741;SDS011;53654;54.152;19.432;2022-07-10T14:58:11;3.30;;;1.10;;
66741;SDS011;53654;54.152;19.432;2022-07-10T15:00:39;1.50;;;1.00;;
66741;SDS011;53654;54.152;19.432;2022-07-10T15:03:07;2.20;;;1.60;;
66741;SDS011;53654;54.152;19.432;2022-07-10T15:05:35;1.80;;;1.30;;
66741;SDS011;53654;54.152;19.432;2022-07-10T15:08:04;1.60;;;1.30;;
66741;SDS011;53654;54.152;19.432;2022-07-10T15:10:33;4.50;;;1.80;;
66741;SDS011;53654;54.152;19.432;2022-07-10T15:13:01;3.00;;;1.60;;
66741;SDS011;53654;54.152;19.432;2022-07-10T15:15:32;3.50;;;1.50;;
66741;SDS011;53654;54.152;19.432;2022-07-10T15:18:01;3.40;;;1.30;;
66741;SDS011;53654;54.152;19.432;2022-07-10T15:20:30;1.70;;;1.10;;